Strona główna
METAR-TAF:

METAR-TAF

Lotnisko :

Port lotniczy Ochryda

Ochryda, Macedonia

Szerokość geograficzna: 41-07N, Długość geograficzna: 020-48E, wysokość: 760 m

Aktualna obserwacja pogody

Raport powstał 48 minut temu, godzina 18:00 UTC
Wiatr 8 kt od wschodnio-północny wschód, zmienny między północno-północny wschód i wschód
Temperatura 27°C
Wilgotność 28%
Ciśnienie 1019 hPa
Widzialność 10 km lub więcej
Mało chmury na wysokości 4000 ft
Rozproszone chmury na wysokości 9000 ft

METAR: LWOH 211800Z 06008KT 020V080 9999 FEW040 SCT090 27/07 Q1019

czas: 20:48 (18:48 UTC)

Prognoza

Raport powstał 1 godzina i 18 minut temu, godzina 17:30 UTC
Prognoza ważna od 21 godzina 18 UTC do 22 godzina 18 UTC
Wiatr 8 kt od północ
Widzialność 10 km lub więcej
Brak chmur poniżej 1500 m i brak chmur cumulonimbus

TAF: LWOH 211730Z 2118/2218 36008KT CAVOK

Obserwacja i prognoza pogody dla ponad 4000 lotnisk (raport METAR i TAF).

Dostępne stacje oznaczono żółtymi i czerwonymi punktami na mapie.

Najedź kursorem aby zobaczyć nazwę stacji.

Kliknij aby zobaczyć obserwacje i prognozy pogody.

Aby zmienić mapę: kliknij na zielony przycisk z czarnym krzyżykiem, aby powiększyć; na zielony przycisk z myślnikiem, aby pomniejszyć; na zielone strzałki, aby przejść do map sąsiednich.


METAR-TAF: